.
WxDataArchive / Data Records for 2006-03-15
2006-03-14 March 2006 2006-03-16

Data Records for Wednesday, 15 March 2006

Time	Temp	Chill	HIndex	Humid	Dewpt	 Wind 	HiWind	WindDir	Rain 	Barom 
-----	----	-----	------	-----	-----	------	------	-------	-----	----- 
00:00	35.8	32.5	35.8	59	22.9	4	13	270	0.00	30.023 
00:05	35.6	32.2	35.6	60	23.1	4	10	270	0.00	30.023 
00:10	35.5	35.5	35.5	61	23.4	3	7	270	0.00	30.023 
00:15	35.3	35.3	35.3	62	23.6	2	5	270	0.00	30.018 
00:20	35.0	35.0	35.0	63	23.7	2	4	270	0.00	30.018 
00:25	34.7	34.7	34.7	64	23.8	2	4	248	0.00	30.018 
00:30	34.6	34.6	34.6	66	24.4	2	5	270	0.00	30.019 
00:35	34.4	34.4	34.4	66	24.2	2	4	338	0.00	30.019 
00:40	34.4	34.4	34.4	66	24.2	1	4	338	0.00	30.019 
00:45	34.4	34.4	34.4	67	24.6	1	2	270	0.00	30.022 
00:50	34.6	34.6	34.6	66	24.4	2	9	270	0.00	30.022 
00:55	34.7	34.7	34.7	66	24.5	1	5	292	0.00	30.022 
01:00	35.0	35.0	35.0	64	24.1	2	5	292	0.00	30.023 
01:05	35.3	31.9	35.3	63	24.0	4	11	270	0.00	30.023 
01:10	35.5	35.5	35.5	63	24.2	3	9	270	0.00	30.023 
01:15	35.5	35.5	35.5	64	24.5	3	7	270	0.00	30.022 
01:20	35.3	35.3	35.3	64	24.4	3	6	315	0.00	30.022 
01:25	35.3	35.3	35.3	65	24.7	3	8	248	0.00	30.022 
01:30	35.2	31.8	35.2	66	25.0	4	7	270	0.00	30.031 
01:35	35.2	31.8	35.2	66	25.0	4	10	270	0.00	30.031 
01:40	35.2	35.2	35.2	66	25.0	3	7	270	0.00	30.031 
01:45	35.2	35.2	35.2	67	25.4	3	6	270	0.00	30.033 
01:50	35.0	35.0	35.0	67	25.2	2	6	270	0.00	30.033 
01:55	35.0	35.0	35.0	65	24.4	3	7	270	0.00	30.033 
02:00	35.2	35.2	35.2	65	24.6	3	7	270	0.00	30.035 
02:05	35.2	35.2	35.2	65	24.6	3	7	315	0.00	30.035 
02:10	34.9	31.4	34.9	66	24.7	4	10	270	0.00	30.035 
02:15	34.9	31.4	34.9	65	24.3	4	7	270	0.00	30.035 
02:20	34.9	31.4	34.9	65	24.3	4	9	270	0.00	30.035 
02:25	34.9	31.4	34.9	63	23.6	4	10	270	0.00	30.035 
02:30	34.9	34.9	34.9	63	23.6	3	10	270	0.00	30.035 
02:35	34.9	34.9	34.9	63	23.6	3	6	270	0.00	30.035 
02:40	35.0	35.0	35.0	62	23.3	3	6	292	0.00	30.035 
02:45	35.0	30.6	35.0	60	22.5	5	17	270	0.00	30.035 
02:50	34.9	34.9	34.9	60	22.4	3	7	315	0.00	30.035 
02:55	34.6	34.6	34.6	61	22.6	3	9	315	0.00	30.035 
03:00	34.4	30.8	34.4	60	22.0	4	13	315	0.00	30.038 
03:05	34.3	29.8	34.3	58	21.1	5	11	270	0.00	30.038 
03:10	34.0	30.4	34.0	58	20.8	4	11	315	0.00	30.038 
03:15	33.8	33.8	33.8	58	20.6	3	7	292	0.00	30.049 
03:20	33.5	33.5	33.5	58	20.3	3	7	315	0.00	30.049 
03:25	33.2	29.5	33.2	58	20.0	4	9	270	0.00	30.049 
03:30	32.9	32.9	32.9	58	19.8	3	8	292	0.00	30.054 
03:35	32.8	32.8	32.8	57	19.3	3	11	315	0.00	30.054 
03:40	32.5	28.7	32.5	57	19.0	4	13	315	0.00	30.054 
03:45	32.4	32.4	32.4	58	19.3	3	6	270	0.00	30.057 
03:50	32.2	32.2	32.2	57	18.7	3	7	292	0.00	30.057 
03:55	31.9	31.9	31.9	58	18.8	3	6	270	0.00	30.057 
04:00	31.9	31.9	31.9	58	18.8	3	7	292	0.00	30.066 
04:05	31.8	31.8	31.8	59	19.1	3	6	270	0.00	30.066 
04:10	31.6	31.6	31.6	60	19.3	2	5	270	0.00	30.066 
04:15	31.5	31.5	31.5	61	19.6	2	9	270	0.00	30.077 
04:20	31.3	31.3	31.3	62	19.8	2	7	270	0.00	30.077 
04:25	31.3	31.3	31.3	62	19.8	2	6	248	0.00	30.077 
04:30	31.0	31.0	31.0	63	19.9	2	4	315	0.00	30.083 
04:35	31.0	31.0	31.0	63	19.9	2	6	315	0.00	30.083 
04:40	30.9	30.9	30.9	63	19.8	2	4	338	0.00	30.083 
04:45	30.7	30.7	30.7	64	20.0	1	4	270	0.00	30.089 
04:50	30.6	30.6	30.6	64	19.9	1	3	270	0.00	30.089 
04:55	30.4	30.4	30.4	64	19.7	1	3	315	0.00	30.089 
05:00	30.1	30.1	30.1	64	19.4	1	2	315	0.00	30.102 
05:05	30.0	30.0	30.0	65	19.7	1	3	338	0.00	30.102 
05:10	29.8	29.8	29.8	64	19.1	1	6	338	0.00	30.102 
05:15	30.0	30.0	30.0	63	19.0	2	5	315	0.00	30.108 
05:20	29.8	29.8	29.8	63	18.8	2	4	292	0.00	30.108 
05:25	29.8	29.8	29.8	63	18.8	2	7	315	0.00	30.108 
05:30	29.8	29.8	29.8	63	18.8	2	6	270	0.00	30.117 
05:35	29.5	29.5	29.5	63	18.5	1	3	315	0.00	30.117 
05:40	29.4	29.4	29.4	62	18.0	2	5	315	0.00	30.117 
05:45	29.5	29.5	29.5	61	17.7	2	6	270	0.00	30.125 
05:50	29.4	29.4	29.4	59	16.9	2	6	270	0.00	30.125 
05:55	29.4	29.4	29.4	59	16.9	2	7	292	0.00	30.125 
06:00	29.3	29.3	29.3	60	17.2	2	4	270	0.00	30.133 
06:05	29.1	29.1	29.1	59	16.6	1	6	292	0.00	30.133 
06:10	29.3	29.3	29.3	59	16.8	2	5	270	0.00	30.133 
06:15	29.3	29.3	29.3	60	17.2	2	6	248	0.00	30.139 
06:20	29.1	29.1	29.1	60	17.0	2	4	315	0.00	30.139 
06:25	29.0	29.0	29.0	62	17.6	1	4	248	0.00	30.139 
06:30	28.8	28.8	28.8	62	17.4	1	3	270	0.00	30.141 
06:35	28.8	28.8	28.8	62	17.4	1	3	270	0.00	30.141 
06:40	28.8	28.8	28.8	62	17.4	1	5	292	0.00	30.141 
06:45	28.7	28.7	28.7	63	17.7	0	2	270	0.00	30.141 
06:50	28.7	28.7	28.7	63	17.7	1	3	270	0.00	30.141 
06:55	28.5	28.5	28.5	63	17.5	1	3	270	0.00	30.141 
07:00	28.5	28.5	28.5	63	17.5	1	2	315	0.00	30.146 
07:05	28.7	28.7	28.7	63	17.7	1	3	315	0.00	30.146 
07:10	28.7	28.7	28.7	63	17.7	1	3	292	0.00	30.146 
07:15	29.0	29.0	29.0	62	17.6	1	4	315	0.00	30.156 
07:20	29.1	29.1	29.1	62	17.7	1	4	270	0.00	30.156 
07:25	29.4	29.4	29.4	62	18.0	1	3	292	0.00	30.156 
07:30	29.5	29.5	29.5	61	17.7	1	2	270	0.00	30.156 
07:35	29.8	29.8	29.8	61	18.0	0	3	292	0.00	30.156 
07:40	30.0	30.0	30.0	61	18.2	1	3	292	0.00	30.156 
07:45	30.1	30.1	30.1	60	17.9	2	4	338	0.00	30.159 
07:50	30.4	30.4	30.4	60	18.2	2	4	270	0.00	30.159 
07:55	30.6	30.6	30.6	60	18.4	1	6	292	0.00	30.159 
08:00	30.9	30.9	30.9	61	19.1	2	4	270	0.00	30.171 
08:05	31.3	31.3	31.3	60	19.0	1	3	270	0.00	30.171 
08:10	31.3	31.3	31.3	60	19.0	1	4	270	0.00	30.171 
08:15	31.3	31.3	31.3	61	19.4	2	4	248	0.00	30.182 
08:20	31.5	31.5	31.5	61	19.6	2	4	270	0.00	30.182 
08:25	31.6	31.6	31.6	60	19.3	2	7	270	0.00	30.182 
08:30	31.8	31.8	31.8	61	19.9	2	4	315	0.00	30.179 
08:35	31.9	31.9	31.9	60	19.6	1	4	338	0.00	30.179 
08:40	32.1	32.1	32.1	58	19.0	2	6	338	0.00	30.179 
08:45	32.1	28.2	32.1	56	18.2	4	9	270	0.00	30.180 
08:50	32.1	32.1	32.1	56	18.2	3	9	315	0.00	30.180 
08:55	32.4	32.4	32.4	56	18.5	3	11	270	0.00	30.180 
09:00	32.7	32.7	32.7	55	18.3	3	5	270	0.00	30.184 
09:05	33.1	33.1	33.1	57	19.5	2	6	270	0.00	30.184 
09:10	33.5	33.5	33.5	56	19.5	2	6	292	0.00	30.184 
09:15	33.7	33.7	33.7	54	18.8	3	9	292	0.00	30.190 
09:20	33.7	33.7	33.7	55	19.3	3	6	270	0.00	30.190 
09:25	34.1	34.1	34.1	55	19.6	2	7	338	0.00	30.190 
09:30	34.3	34.3	34.3	56	20.3	3	5	270	0.00	30.201 
09:35	34.6	34.6	34.6	56	20.5	2	5	270	0.00	30.201 
09:40	34.6	34.6	34.6	54	19.7	3	6	270	0.00	30.201 
09:45	34.9	34.9	34.9	54	20.0	3	7	248	0.00	30.198 
09:50	34.9	31.4	34.9	54	20.0	4	11	270	0.00	30.198 
09:55	34.9	34.9	34.9	54	20.0	3	9	270	0.00	30.198 
10:00	35.5	35.5	35.5	52	19.6	3	13	270	0.00	30.198 
10:05	35.3	35.3	35.3	52	19.5	3	10	270	0.00	30.198 
10:10	35.5	35.5	35.5	49	18.3	3	10	270	0.00	30.198 
10:15	35.9	35.9	35.9	49	18.6	3	7	270	0.00	30.198 
10:20	35.9	35.9	35.9	48	18.1	3	7	292	0.00	30.198 
10:25	35.9	35.9	35.9	47	17.7	3	6	315	0.00	30.198 
10:30	36.5	36.5	36.5	49	19.2	2	4	338	0.00	30.196 
10:35	37.0	37.0	37.0	49	19.6	3	6	270	0.00	30.196 
10:40	37.0	37.0	37.0	48	19.2	3	6	292	0.00	30.196 
10:45	36.6	33.4	36.6	48	18.8	4	9	315	0.00	30.197 
10:50	37.0	37.0	37.0	51	20.6	2	5	338	0.00	30.197 
10:55	37.3	37.3	37.3	49	19.9	3	6	270	0.00	30.197 
11:00	37.3	37.3	37.3	49	19.9	3	7	270	0.00	30.202 
11:05	37.5	37.5	37.5	48	19.6	3	5	270	0.00	30.202 
11:10	37.9	37.9	37.9	46	19.0	2	5	315	0.00	30.202 
11:15	38.2	38.2	38.2	49	20.7	3	6	270	0.00	30.197 
11:20	38.5	38.5	38.5	49	21.0	2	6	315	0.00	30.197 
11:25	38.9	38.9	38.9	47	20.4	3	6	270	0.00	30.197 
11:30	38.8	38.8	38.8	46	19.8	2	6	315	0.00	30.199 
11:35	38.6	38.6	38.6	48	20.6	3	6	338	0.00	30.199 
11:40	38.8	35.9	38.8	46	19.8	4	10	270	0.00	30.199 
11:45	39.2	39.2	39.2	46	20.2	3	7	315	0.00	30.196 
11:50	39.3	36.5	39.3	46	20.3	4	10	270	0.00	30.196 
11:55	39.5	39.5	39.5	49	21.9	3	5	270	0.00	30.196 
12:00	39.3	36.5	39.3	45	19.8	4	10	270	0.00	30.192 
12:05	39.5	39.5	39.5	44	19.4	3	7	270	0.00	30.192 
12:10	39.6	36.9	39.6	48	21.5	4	7	270	0.00	30.192 
12:15	39.8	39.8	39.8	49	22.2	3	7	270	0.00	30.195 
12:20	40.3	37.7	40.3	46	21.2	4	7	248	0.00	30.195 
12:25	40.3	40.3	40.3	50	23.2	3	7	270	0.00	30.195 
12:30	40.5	40.5	40.5	43	19.8	3	8	270	0.00	30.193 
12:35	40.6	38.0	40.6	45	20.9	4	9	270	0.00	30.193 
12:40	40.9	40.9	40.9	46	21.7	3	12	270	0.00	30.193 
12:45	41.5	39.1	41.5	42	20.1	4	10	270	0.00	30.197 
12:50	41.1	41.1	41.1	42	19.8	3	11	270	0.00	30.197 
12:55	41.2	41.2	41.2	45	21.5	3	6	270	0.00	30.197 
13:00	41.5	41.5	41.5	43	20.7	3	7	270	0.00	30.194 
13:05	41.3	38.8	41.3	42	20.0	4	9	270	0.00	30.194 
13:10	41.3	41.3	41.3	43	20.5	3	6	270	0.00	30.194 
13:15	41.9	41.9	41.9	43	21.1	3	7	292	0.00	30.191 
13:20	42.1	42.1	42.1	43	21.2	3	5	315	0.00	30.191 
13:25	42.1	39.7	42.1	48	23.8	4	10	270	0.00	30.191 
13:30	42.3	40.0	42.3	46	23.0	4	8	270	0.00	30.187 
13:35	42.6	42.6	42.6	42	21.1	3	9	270	0.00	30.187 
13:40	42.8	42.8	42.8	44	22.4	3	7	270	0.00	30.187 
13:45	42.8	40.6	42.8	41	20.7	4	11	270	0.00	30.181 
13:50	42.3	42.3	42.3	42	20.9	3	7	270	0.00	30.181 
13:55	42.2	42.2	42.2	47	23.4	3	6	270	0.00	30.181 
14:00	42.9	39.9	42.9	43	22.0	5	15	270	0.00	30.177 
14:05	42.8	40.6	42.8	41	20.7	4	12	270	0.00	30.177 
14:10	42.2	39.9	42.2	42	20.8	4	11	270	0.00	30.177 
14:15	42.8	40.6	42.8	40	20.2	4	7	270	0.00	30.178 
14:20	42.9	42.9	42.9	41	20.8	3	9	270	0.00	30.178 
14:25	43.3	43.3	43.3	41	21.2	3	9	270	0.00	30.178 
14:30	42.9	40.7	42.9	38	19.1	4	7	270	0.00	30.174 
14:35	42.9	40.7	42.9	38	19.1	4	13	270	0.00	30.174 
14:40	43.2	43.2	43.2	40	20.5	3	9	248	0.00	30.174 
14:45	43.6	41.5	43.6	43	22.6	4	8	270	0.00	30.166 
14:50	43.8	43.8	43.8	38	19.9	3	11	270	0.00	30.166 
14:55	43.8	41.7	43.8	41	21.7	4	11	270	0.00	30.166 
15:00	43.9	41.8	43.9	41	21.7	4	11	248	0.00	30.161 
15:05	44.2	42.2	44.2	37	19.6	4	9	270	0.00	30.161 
15:10	43.8	43.8	43.8	36	18.6	3	10	292	0.00	30.161 
15:15	43.6	43.6	43.6	40	20.9	3	9	270	0.00	30.162 
15:20	43.9	41.1	43.9	40	21.2	5	11	270	0.00	30.162 
15:25	43.9	41.8	43.9	38	20.0	4	10	270	0.00	30.162 
15:30	43.8	41.7	43.8	39	20.5	4	9	270	0.00	30.159 
15:35	43.9	41.8	43.9	36	18.7	4	11	270	0.00	30.159 
15:40	43.9	43.9	43.9	37	19.3	3	6	270	0.00	30.159 
15:45	43.5	41.4	43.5	37	19.0	4	9	270	0.00	30.163 
15:50	43.5	43.5	43.5	37	19.0	2	4	270	0.00	30.163 
15:55	43.6	43.6	43.6	39	20.3	3	7	338	0.00	30.163 
16:00	43.3	41.1	43.3	37	18.8	4	9	292	0.00	30.165 
16:05	43.8	43.8	43.8	39	20.5	2	5	248	0.00	30.165 
16:10	43.8	43.8	43.8	37	19.2	3	5	270	0.00	30.165 
16:15	43.5	43.5	43.5	37	19.0	3	6	315	0.00	30.166 
16:20	43.6	43.6	43.6	37	19.1	3	6	292	0.00	30.166 
16:25	43.1	43.1	43.1	36	18.0	3	7	315	0.00	30.166 
16:30	42.8	40.6	42.8	37	18.4	4	10	270	0.00	30.172 
16:35	42.5	42.5	42.5	36	17.4	3	9	315	0.00	30.172 
16:40	42.2	42.2	42.2	38	18.4	3	7	338	0.00	30.172 
16:45	42.2	42.2	42.2	39	19.0	2	6	338	0.00	30.170 
16:50	42.3	42.3	42.3	38	18.5	3	7	270	0.00	30.170 
16:55	42.2	39.9	42.2	36	17.2	4	10	270	0.00	30.170 
17:00	41.9	41.9	41.9	37	17.5	3	7	315	0.00	30.181 
17:05	41.8	41.8	41.8	38	18.1	2	5	270	0.00	30.181 
17:10	41.6	41.6	41.6	40	19.1	2	7	315	0.00	30.181 
17:15	41.6	41.6	41.6	39	18.5	3	6	270	0.00	30.179 
17:20	41.3	41.3	41.3	41	19.4	3	9	270	0.00	30.179 
17:25	41.2	41.2	41.2	41	19.3	3	6	270	0.00	30.179 
17:30	41.3	41.3	41.3	42	20.0	2	6	270	0.00	30.170 
17:35	41.2	41.2	41.2	40	18.7	3	10	270	0.00	30.170 
17:40	40.9	40.9	40.9	40	18.5	2	5	292	0.00	30.170 
17:45	40.8	40.8	40.8	39	17.8	2	7	338	0.00	30.172 
17:50	40.6	40.6	40.6	41	18.8	2	6	270	0.00	30.172 
17:55	40.6	40.6	40.6	42	19.3	1	4	270	0.00	30.172 
18:00	40.3	40.3	40.3	41	18.5	2	5	270	0.00	30.170 
18:05	40.1	40.1	40.1	42	18.9	2	5	315	0.00	30.170 
18:10	39.9	39.9	39.9	41	18.1	2	6	270	0.00	30.170 
18:15	39.9	39.9	39.9	42	18.7	2	4	248	0.00	30.170 
18:20	39.8	39.8	39.8	43	19.1	1	2	270	0.00	30.170 
18:25	39.6	39.6	39.6	43	19.0	1	3	270	0.00	30.170 
18:30	39.5	39.5	39.5	43	18.9	2	5	270	0.00	30.180 
18:35	39.3	39.3	39.3	43	18.7	1	4	270	0.00	30.180 
18:40	39.3	39.3	39.3	43	18.7	2	5	315	0.00	30.180 
18:45	39.2	39.2	39.2	43	18.6	1	3	315	0.00	30.174 
18:50	39.1	39.1	39.1	43	18.5	1	4	248	0.00	30.174 
18:55	38.9	38.9	38.9	44	18.9	2	5	270	0.00	30.174 
19:00	38.9	38.9	38.9	44	18.9	1	4	248	0.00	30.176 
19:05	38.6	38.6	38.6	45	19.1	0	2	248	0.00	30.176 
19:10	38.5	38.5	38.5	45	19.0	0	3	270	0.00	30.176 
19:15	38.3	38.3	38.3	46	19.4	1	3	338	0.00	30.173 
19:20	38.0	38.0	38.0	47	19.6	1	3	338	0.00	30.173 
19:25	37.9	37.9	37.9	47	19.5	0	2	338	0.00	30.173 
19:30	37.8	37.8	37.8	48	19.9	0	1	338	0.00	30.175 
19:35	37.6	37.6	37.6	48	19.7	0	2	338	0.00	30.175 
19:40	37.6	37.6	37.6	48	19.7	1	4	292	0.00	30.175 
19:45	37.5	37.5	37.5	48	19.6	1	3	292	0.00	30.183 
19:50	37.5	37.5	37.5	49	20.1	1	3	292	0.00	30.183 
19:55	37.3	37.3	37.3	49	19.9	1	2	292	0.00	30.183 
20:00	37.2	37.2	37.2	49	19.8	0	1	315	0.00	30.184 
20:05	37.0	37.0	37.0	50	20.1	0	1	315	0.00	30.184 
20:10	36.9	36.9	36.9	51	20.5	0	2	315	0.00	30.184 
20:15	36.8	36.8	36.8	51	20.4	0	2	315	0.00	30.184 
20:20	36.8	36.8	36.8	50	19.9	0	2	338	0.00	30.184 
20:25	36.8	36.8	36.8	50	19.9	1	4	270	0.00	30.184 
20:30	36.6	36.6	36.6	50	19.7	0	2	270	0.00	30.186 
20:35	36.5	36.5	36.5	51	20.1	0	1	270	0.00	30.186 
20:40	36.3	36.3	36.3	52	20.4	0	1	270	0.00	30.186 
20:45	36.2	36.2	36.2	53	20.7	0	0	---	0.00	30.190 
20:50	36.0	36.0	36.0	53	20.5	0	0	---	0.00	30.190 
20:55	35.9	35.9	35.9	52	20.0	0	1	270	0.00	30.190 
21:00	35.9	35.9	35.9	51	19.6	0	1	270	0.00	30.187 
21:05	35.9	35.9	35.9	51	19.6	0	4	270	0.00	30.187 
21:10	35.9	35.9	35.9	50	19.1	0	3	270	0.00	30.187 
21:15	35.9	35.9	35.9	50	19.1	0	2	270	0.00	30.184 
21:20	35.8	35.8	35.8	50	19.0	0	1	270	0.00	30.184 
21:25	35.8	35.8	35.8	48	18.1	0	3	270	0.00	30.184 
21:30	35.8	35.8	35.8	48	18.1	0	2	315	0.00	30.180 
21:35	35.6	35.6	35.6	47	17.4	0	2	315	0.00	30.180 
21:40	35.5	35.5	35.5	48	17.8	0	2	270	0.00	30.180 
21:45	35.5	35.5	35.5	48	17.8	0	1	270	0.00	30.180 
21:50	35.3	35.3	35.3	49	18.1	0	1	270	0.00	30.180 
21:55	35.2	35.2	35.2	50	18.4	0	1	270	0.00	30.180 
22:00	35.2	35.2	35.2	49	18.0	0	1	270	0.00	30.183 
22:05	35.0	35.0	35.0	50	18.3	0	1	270	0.00	30.183 
22:10	34.9	34.9	34.9	50	18.2	0	1	270	0.00	30.183 
22:15	34.9	34.9	34.9	50	18.2	0	1	270	0.00	30.188 
22:20	34.7	34.7	34.7	50	18.0	0	0	---	0.00	30.188 
22:25	34.6	34.6	34.6	50	17.9	0	0	---	0.00	30.188 
22:30	34.4	34.4	34.4	50	17.7	0	0	---	0.00	30.184 
22:35	34.3	34.3	34.3	50	17.6	0	0	---	0.00	30.184 
22:40	34.1	34.1	34.1	51	17.9	0	0	---	0.00	30.184 
22:45	34.0	34.0	34.0	51	17.8	0	0	---	0.00	30.193 
22:50	34.0	34.0	34.0	52	18.2	0	1	270	0.00	30.193 
22:55	34.0	34.0	34.0	52	18.2	0	1	270	0.00	30.193 
23:00	34.0	34.0	34.0	52	18.2	0	0	---	0.00	30.195 
23:05	34.0	34.0	34.0	51	17.8	0	1	270	0.00	30.195 
23:10	34.0	34.0	34.0	52	18.2	0	1	270	0.00	30.195 
23:15	34.1	34.1	34.1	53	18.8	0	1	270	0.00	30.195 
23:20	34.1	34.1	34.1	53	18.8	0	1	270	0.00	30.195 
23:25	34.1	34.1	34.1	53	18.8	0	1	270	0.00	30.195 
23:30	34.3	34.3	34.3	52	18.5	0	1	270	0.00	30.195 
23:35	34.3	34.3	34.3	52	18.5	0	1	270	0.00	30.195 
23:40	34.3	34.3	34.3	53	19.0	0	1	270	0.00	30.195 
23:45	34.3	34.3	34.3	52	18.5	0	1	270	0.00	30.192 
23:50	34.1	34.1	34.1	53	18.8	0	1	270	0.00	30.192 
23:55	34.1	34.1	34.1	53	18.8	0	1	270	0.00	30.192 

CoCoRaHS
IN-AL-39
A2 Web Hosting
Creative Commons License
GoDaddy
Look for:

loaded 2017-10-20 19:49:16 • last modified 2010-11-18 10:43:29
Privacy PolicyDisclaimer
• wx.awcolley.com is powered by PmWiki v.2002016 •
• all content (unless otherwise noted) © 2017 A W Colley